Guilden Sutton, United Kingdom
Current Conditions -  °F | °C
As of 1:50 PM on Wednesday 22 Oct 2014 (Local Time) from EGNR Reporting Station
Few Clouds Few Clouds  
Wind Chill: 55°   Ceiling: Unl
Heat Index: 55°   Visibility: 6mi
Dew Point: 48°   Wind: 7mph
Humidity: 77%   Direction: 270°W
Pressure: 30.21"   Gusts: NA
Location:  53.21°N, 2.83°W
Report Text: EGNR 221250Z 27006KT 240V300 9999 FEW030 13/09 Q1023
Loading
Personal Weather Stations






























Interactive Weather Map New forecast layout! Learn more

10-Day Weather Forecast

Advertisements
Track Severe Weather on mobile